Time;durP1;ratioP1;P1;durP2;ratioP2;P2;SDS_P1;SDS_P2;PMS_P1;PMS_P2;Temp;Humidity;BMP_temperature;BMP_pressure;BME280_temperature;BME280_humidity;BME280_pressure;Samples;Min_cycle;Max_cycle;Signal;HPM_P1;HPM_P2
2021/04/25 00:01:12;;;;;;;16.37;6.17;;;;;;;;;;4994425;28;20502;-60
2021/04/25 00:03:38;;;;;;;10.93;5.03;;;;;;;;;;4994455;28;20454;-60
2021/04/25 00:06:05;;;;;;;10.57;4.60;;;;;;;;;;4994576;28;20804;-59
2021/04/25 00:08:32;;;;;;;11.13;5.83;;;;;;;;;;4994571;28;20452;-60
2021/04/25 00:10:58;;;;;;;13.80;5.30;;;;;;;;;;4994199;28;20481;-60
2021/04/25 00:13:26;;;;;;;10.77;6.13;;;;;;;;;;4994315;28;20448;-60
2021/04/25 00:15:52;;;;;;;8.37;4.87;;;;;;;;;;4994077;28;20548;-60
2021/04/25 00:18:19;;;;;;;13.30;5.37;;;;;;;;;;4995008;28;20476;-60
2021/04/25 00:20:45;;;;;;;10.70;5.10;;;;;;;;;;4994150;28;20473;-60
2021/04/25 00:23:12;;;;;;;11.37;5.47;;;;;;;;;;4994255;28;20507;-61
2021/04/25 00:25:38;;;;;;;10.33;5.20;;;;;;;;;;4994216;28;20452;-61
2021/04/25 00:28:05;;;;;;;12.20;5.53;;;;;;;;;;4993989;28;20456;-61
2021/04/25 00:30:33;;;;;;;10.47;5.33;;;;;;;;;;4993671;28;20951;-60
2021/04/25 00:32:59;;;;;;;9.17;5.40;;;;;;;;;;4994078;28;20463;-60
2021/04/25 00:35:26;;;;;;;11.53;4.77;;;;;;;;;;4993909;28;20492;-60
2021/04/25 00:37:52;;;;;;;9.90;5.50;;;;;;;;;;4993843;28;20464;-61
2021/04/25 00:40:19;;;;;;;10.23;5.43;;;;;;;;;;4993581;28;20961;-61
2021/04/25 00:42:46;;;;;;;15.07;5.43;;;;;;;;;;4993930;28;20472;-60
2021/04/25 00:45:13;;;;;;;13.53;5.93;;;;;;;;;;4994607;28;20472;-59
2021/04/25 00:47:41;;;;;;;10.97;5.23;;;;;;;;;;4993884;28;20454;-61
2021/04/25 00:50:09;;;;;;;14.47;6.37;;;;;;;;;;4993481;28;20450;-61
2021/04/25 00:52:37;;;;;;;14.03;5.80;;;;;;;;;;4993648;28;20496;-60
2021/04/25 00:55:04;;;;;;;13.83;4.87;;;;;;;;;;4993525;28;20484;-61
2021/04/25 00:57:31;;;;;;;16.17;6.70;;;;;;;;;;4993373;28;20862;-59
2021/04/25 00:59:57;;;;;;;11.43;5.23;;;;;;;;;;4993233;28;20457;-61
2021/04/25 01:02:24;;;;;;;13.43;6.30;;;;;;;;;;4993513;28;20485;-60
2021/04/25 01:04:52;;;;;;;12.63;5.80;;;;;;;;;;4993786;28;20464;-60
2021/04/25 01:07:19;;;;;;;12.83;6.33;;;;;;;;;;4993588;28;20454;-60
2021/04/25 01:09:45;;;;;;;13.30;6.07;;;;;;;;;;4993576;28;20524;-60
2021/04/25 01:12:12;;;;;;;14.53;6.27;;;;;;;;;;4993372;28;20491;-61
2021/04/25 01:14:39;;;;;;;14.07;5.33;;;;;;;;;;4993313;28;20457;-61
2021/04/25 01:17:05;;;;;;;12.47;5.70;;;;;;;;;;4993412;28;20451;-60
2021/04/25 01:19:32;;;;;;;11.63;5.50;;;;;;;;;;4993098;28;20455;-60
2021/04/25 01:21:59;;;;;;;13.63;6.03;;;;;;;;;;4992985;28;20475;-61
2021/04/25 01:24:25;;;;;;;12.97;6.00;;;;;;;;;;4992967;28;20829;-61
2021/04/25 01:26:52;;;;;;;10.03;5.50;;;;;;;;;;4993142;28;20503;-60
2021/04/25 01:29:18;;;;;;;12.23;6.10;;;;;;;;;;4993189;28;20460;-60
2021/04/25 01:31:45;;;;;;;14.83;6.60;;;;;;;;;;4992759;28;20479;-61
2021/04/25 01:34:12;;;;;;;12.80;6.20;;;;;;;;;;4993040;28;20452;-61
2021/04/25 01:36:38;;;;;;;14.10;6.00;;;;;;;;;;4992725;28;20955;-60
2021/04/25 01:39:06;;;;;;;13.17;6.00;;;;;;;;;;4993927;28;20452;-60
2021/04/25 01:41:32;;;;;;;10.57;6.03;;;;;;;;;;4992512;28;20502;-61
2021/04/25 01:43:59;;;;;;;12.83;7.23;;;;;;;;;;4993246;28;20448;-60
2021/04/25 01:46:26;;;;;;;12.07;6.20;;;;;;;;;;4993109;28;20812;-60
2021/04/25 01:48:52;;;;;;;11.77;6.27;;;;;;;;;;4992641;28;20451;-60
2021/04/25 01:51:19;;;;;;;14.80;6.57;;;;;;;;;;4992543;28;20484;-60
2021/04/25 01:53:45;;;;;;;16.40;7.03;;;;;;;;;;4992688;28;20865;-60
2021/04/25 01:56:13;;;;;;;16.80;6.83;;;;;;;;;;4992865;28;20491;-61
2021/04/25 01:58:39;;;;;;;11.00;6.00;;;;;;;;;;4993216;28;20451;-60
2021/04/25 02:01:06;;;;;;;13.73;6.23;;;;;;;;;;4992817;28;20479;-60
2021/04/25 02:03:33;;;;;;;12.13;5.93;;;;;;;;;;4993598;28;20447;-60
2021/04/25 02:05:59;;;;;;;20.93;6.90;;;;;;;;;;4998960;28;20447;-60
2021/04/25 02:08:26;;;;;;;14.10;6.27;;;;;;;;;;4999194;28;21019;-59
2021/04/25 02:10:52;;;;;;;14.70;6.33;;;;;;;;;;4998544;28;20537;-59
2021/04/25 02:13:20;;;;;;;12.37;6.37;;;;;;;;;;4999208;28;20456;-59
2021/04/25 02:15:46;;;;;;;11.83;6.37;;;;;;;;;;4998925;28;20856;-60
2021/04/25 02:18:13;;;;;;;13.60;6.43;;;;;;;;;;4999114;28;20456;-61
2021/04/25 02:20:40;;;;;;;12.43;6.70;;;;;;;;;;4998692;28;20466;-60
2021/04/25 02:23:07;;;;;;;14.07;6.37;;;;;;;;;;4998671;28;20478;-60
2021/04/25 02:25:34;;;;;;;10.97;6.20;;;;;;;;;;4998959;28;20448;-64
2021/04/25 02:28:00;;;;;;;11.63;6.07;;;;;;;;;;4999033;28;20495;-60
2021/04/25 02:30:28;;;;;;;13.93;6.33;;;;;;;;;;4998776;28;20515;-60
2021/04/25 02:32:55;;;;;;;14.90;6.07;;;;;;;;;;4998908;28;20509;-60
2021/04/25 02:35:22;;;;;;;16.00;6.90;;;;;;;;;;4998689;28;20536;-59
2021/04/25 02:37:49;;;;;;;11.80;6.17;;;;;;;;;;4998631;28;20452;-61
2021/04/25 02:40:17;;;;;;;12.13;6.37;;;;;;;;;;4998732;28;20506;-60
2021/04/25 02:42:43;;;;;;;12.27;7.07;;;;;;;;;;4998767;28;20472;-60
2021/04/25 02:45:15;;;;;;;17.90;7.73;;;;;;;;;;4998967;28;20443;-61
2021/04/25 02:47:43;;;;;;;14.43;6.90;;;;;;;;;;4998778;28;20453;-61
2021/04/25 02:50:10;;;;;;;14.23;7.60;;;;;;;;;;4998309;28;20455;-61
2021/04/25 02:52:37;;;;;;;14.30;7.13;;;;;;;;;;4998715;28;20475;-60
2021/04/25 02:55:04;;;;;;;14.83;7.87;;;;;;;;;;4998761;28;20486;-60
2021/04/25 02:57:30;;;;;;;21.27;7.13;;;;;;;;;;4998713;28;20451;-59
2021/04/25 02:59:57;;;;;;;16.40;6.27;;;;;;;;;;4998515;28;20451;-60
2021/04/25 03:02:23;;;;;;;13.53;6.83;;;;;;;;;;4998314;28;20523;-58
2021/04/25 03:04:51;;;;;;;13.23;7.67;;;;;;;;;;4998391;28;20487;-60
2021/04/25 03:07:18;;;;;;;13.47;6.87;;;;;;;;;;4998448;28;20967;-60
2021/04/25 03:09:44;;;;;;;12.57;6.77;;;;;;;;;;4998198;28;20948;-59
2021/04/25 03:12:11;;;;;;;16.67;7.47;;;;;;;;;;4998282;28;20866;-60
2021/04/25 03:14:37;;;;;;;16.37;6.97;;;;;;;;;;4998343;28;20447;-59
2021/04/25 03:17:04;;;;;;;12.13;6.60;;;;;;;;;;4994368;28;20486;-59
2021/04/25 03:19:31;;;;;;;15.07;6.83;;;;;;;;;;4995519;28;20531;-59
2021/04/25 03:21:58;;;;;;;13.50;7.10;;;;;;;;;;4995244;28;20485;-57
2021/04/25 03:24:24;;;;;;;12.23;6.87;;;;;;;;;;4995281;28;20454;-59
2021/04/25 03:26:51;;;;;;;13.03;6.57;;;;;;;;;;4995127;28;20458;-59
2021/04/25 03:29:18;;;;;;;11.27;6.37;;;;;;;;;;4995159;28;20452;-59
2021/04/25 03:31:44;;;;;;;13.80;6.77;;;;;;;;;;4994625;28;20837;-59
2021/04/25 03:34:11;;;;;;;14.97;7.10;;;;;;;;;;4995266;28;20463;-60
2021/04/25 03:36:37;;;;;;;12.47;6.53;;;;;;;;;;4994570;28;21008;-59
2021/04/25 03:39:05;;;;;;;11.40;6.70;;;;;;;;;;4995203;28;20455;-60
2021/04/25 03:41:32;;;;;;;17.27;7.03;;;;;;;;;;4994788;28;20486;-60
2021/04/25 03:43:58;;;;;;;10.27;6.20;;;;;;;;;;4994695;28;20841;-60
2021/04/25 03:46:25;;;;;;;12.83;7.13;;;;;;;;;;4994992;28;20505;-61
2021/04/25 03:48:51;;;;;;;15.43;7.17;;;;;;;;;;4994957;28;20447;-60
2021/04/25 03:51:18;;;;;;;13.57;6.87;;;;;;;;;;4994524;28;20482;-61
2021/04/25 03:53:44;;;;;;;14.53;6.83;;;;;;;;;;4994613;28;20939;-60
2021/04/25 03:56:12;;;;;;;13.80;6.53;;;;;;;;;;4994733;28;20479;-61
2021/04/25 03:58:38;;;;;;;12.70;6.03;;;;;;;;;;4994701;28;20452;-61
2021/04/25 04:01:05;;;;;;;14.47;7.50;;;;;;;;;;4994134;28;20471;-61
2021/04/25 04:03:31;;;;;;;15.30;7.20;;;;;;;;;;4994815;28;20483;-61
2021/04/25 04:05:58;;;;;;;17.17;7.30;;;;;;;;;;4994894;28;20452;-58
2021/04/25 04:08:24;;;;;;;14.77;6.63;;;;;;;;;;4994679;28;20451;-60
2021/04/25 04:10:51;;;;;;;14.17;7.17;;;;;;;;;;4994197;28;21023;-59
2021/04/25 04:13:18;;;;;;;14.20;8.10;;;;;;;;;;4994398;28;20456;-61
2021/04/25 04:15:45;;;;;;;11.97;6.33;;;;;;;;;;4994385;28;20487;-61
2021/04/25 04:18:11;;;;;;;13.97;6.73;;;;;;;;;;4994357;28;20463;-59
2021/04/25 04:20:38;;;;;;;13.13;7.20;;;;;;;;;;4994086;28;20828;-59
2021/04/25 04:23:04;;;;;;;10.63;6.63;;;;;;;;;;4994185;28;20456;-60
2021/04/25 04:25:31;;;;;;;10.97;6.37;;;;;;;;;;4994119;28;20921;-60
2021/04/25 04:27:58;;;;;;;15.57;7.10;;;;;;;;;;4993559;28;20972;-58
2021/04/25 04:30:25;;;;;;;12.53;6.27;;;;;;;;;;4994008;28;20804;-59
2021/04/25 04:32:51;;;;;;;12.97;6.67;;;;;;;;;;4994184;28;20459;-61
2021/04/25 04:35:18;;;;;;;13.37;6.70;;;;;;;;;;4993841;28;20730;-60
2021/04/25 04:37:45;;;;;;;12.10;5.47;;;;;;;;;;4993989;28;20454;-59
2021/04/25 04:40:12;;;;;;;17.90;7.43;;;;;;;;;;4993676;28;20455;-61
2021/04/25 04:42:39;;;;;;;12.70;6.67;;;;;;;;;;4993611;28;20479;-60
2021/04/25 04:45:06;;;;;;;14.70;7.20;;;;;;;;;;4993977;28;20453;-61
2021/04/25 04:47:33;;;;;;;14.43;6.70;;;;;;;;;;4993837;28;20514;-60
2021/04/25 04:50:00;;;;;;;11.37;6.50;;;;;;;;;;4993647;28;20452;-60
2021/04/25 04:52:26;;;;;;;16.90;7.10;;;;;;;;;;4993562;28;20480;-59
2021/04/25 04:54:53;;;;;;;12.00;5.87;;;;;;;;;;4993927;28;20453;-60
2021/04/25 04:57:19;;;;;;;11.90;6.80;;;;;;;;;;4993578;28;20459;-61
2021/04/25 04:59:47;;;;;;;14.17;6.53;;;;;;;;;;4993405;28;20453;-60
2021/04/25 05:02:13;;;;;;;13.90;6.10;;;;;;;;;;4993551;28;20508;-60
2021/04/25 05:04:40;;;;;;;10.57;6.37;;;;;;;;;;4993270;28;20452;-61
2021/04/25 05:07:07;;;;;;;11.23;5.53;;;;;;;;;;4993466;28;20446;-60
2021/04/25 05:09:33;;;;;;;15.50;6.40;;;;;;;;;;4993280;28;20830;-60
2021/04/25 05:12:00;;;;;;;12.27;6.27;;;;;;;;;;4993129;28;20484;-61
2021/04/25 05:14:27;;;;;;;11.53;6.57;;;;;;;;;;4993285;28;20458;-60
2021/04/25 05:16:53;;;;;;;12.97;5.90;;;;;;;;;;4993374;28;20492;-61
2021/04/25 05:19:20;;;;;;;13.00;4.27;;;;;;;;;;4993534;28;20462;-59
2021/04/25 05:21:47;;;;;;;13.23;5.57;;;;;;;;;;4993081;28;20479;-61
2021/04/25 05:24:14;;;;;;;10.13;5.10;;;;;;;;;;4994155;28;20464;-60
2021/04/25 05:26:40;;;;;;;9.00;4.27;;;;;;;;;;4993301;28;20449;-60
2021/04/25 05:29:07;;;;;;;9.13;4.73;;;;;;;;;;4993351;28;20452;-60
2021/04/25 05:31:33;;;;;;;7.93;5.10;;;;;;;;;;4992896;28;20830;-58
2021/04/25 05:34:00;;;;;;;9.93;5.07;;;;;;;;;;4992876;28;20881;-61
2021/04/25 05:36:26;;;;;;;8.87;3.80;;;;;;;;;;4992855;28;20531;-59
2021/04/25 05:38:54;;;;;;;8.90;4.03;;;;;;;;;;4991918;28;20528;-60
2021/04/25 05:41:20;;;;;;;8.57;4.10;;;;;;;;;;4992559;28;20994;-59
2021/04/25 05:43:47;;;;;;;4.10;2.27;;;;;;;;;;4992810;28;20487;-58
2021/04/25 05:46:14;;;;;;;6.93;4.33;;;;;;;;;;4992759;28;20512;-59
2021/04/25 05:48:40;;;;;;;10.63;4.37;;;;;;;;;;4992766;28;20460;-59
2021/04/25 05:51:07;;;;;;;10.90;4.90;;;;;;;;;;4992653;28;20468;-58
2021/04/25 05:53:33;;;;;;;9.60;4.07;;;;;;;;;;4992522;28;20453;-60
2021/04/25 05:56:00;;;;;;;8.87;4.23;;;;;;;;;;4992633;28;20488;-61
2021/04/25 05:58:27;;;;;;;10.10;4.97;;;;;;;;;;4992602;28;21144;-60
2021/04/25 06:00:54;;;;;;;7.40;4.20;;;;;;;;;;4992368;28;20848;-61
2021/04/25 06:03:20;;;;;;;8.67;4.37;;;;;;;;;;4992446;28;20461;-61
2021/04/25 06:05:47;;;;;;;8.43;3.60;;;;;;;;;;4992574;28;20952;-61
2021/04/25 06:08:13;;;;;;;6.53;4.30;;;;;;;;;;4992701;28;20452;-61
2021/04/25 06:10:40;;;;;;;9.20;4.30;;;;;;;;;;4993203;28;20456;-61
2021/04/25 06:13:07;;;;;;;8.43;4.00;;;;;;;;;;4993258;28;20450;-62
2021/04/25 06:15:34;;;;;;;12.57;4.77;;;;;;;;;;4993400;28;21001;-61
2021/04/25 06:18:02;;;;;;;9.77;4.00;;;;;;;;;;4992773;28;20458;-60
2021/04/25 06:20:30;;;;;;;8.97;4.40;;;;;;;;;;4992625;28;20970;-60
2021/04/25 06:22:56;;;;;;;9.50;4.37;;;;;;;;;;4992633;28;20855;-60
2021/04/25 06:25:23;;;;;;;8.03;3.87;;;;;;;;;;4993000;28;20451;-62
2021/04/25 06:27:49;;;;;;;10.53;4.70;;;;;;;;;;4992454;28;20452;-61
2021/04/25 06:30:18;;;;;;;9.40;4.47;;;;;;;;;;4992303;28;20881;-61
2021/04/25 06:32:45;;;;;;;10.47;4.70;;;;;;;;;;4992041;28;20489;-60
2021/04/25 06:35:13;;;;;;;8.77;3.87;;;;;;;;;;4990807;28;20450;-60
2021/04/25 06:37:39;;;;;;;8.10;3.80;;;;;;;;;;4992413;28;20459;-61
2021/04/25 06:40:07;;;;;;;6.80;4.40;;;;;;;;;;4992239;28;20824;-60
2021/04/25 06:42:33;;;;;;;8.07;4.97;;;;;;;;;;4992303;28;20539;-60
2021/04/25 06:45:00;;;;;;;9.17;5.23;;;;;;;;;;4992189;28;20859;-60
2021/04/25 06:47:27;;;;;;;7.53;5.47;;;;;;;;;;4992219;28;20464;-61
2021/04/25 06:49:54;;;;;;;12.70;5.90;;;;;;;;;;4992343;28;20489;-60
2021/04/25 06:52:20;;;;;;;9.73;5.13;;;;;;;;;;4996016;28;20844;-60
2021/04/25 06:54:47;;;;;;;10.73;4.70;;;;;;;;;;4995964;28;20454;-61
2021/04/25 06:57:13;;;;;;;8.83;4.80;;;;;;;;;;4995844;28;21010;-61
2021/04/25 06:59:40;;;;;;;8.20;4.70;;;;;;;;;;4995596;28;20468;-62
2021/04/25 07:02:06;;;;;;;11.03;4.23;;;;;;;;;;4995550;28;20470;-61
2021/04/25 07:04:34;;;;;;;6.70;4.73;;;;;;;;;;4995570;28;21086;-61
2021/04/25 07:07:00;;;;;;;9.70;4.80;;;;;;;;;;4995682;28;20950;-58
2021/04/25 07:09:27;;;;;;;9.33;4.63;;;;;;;;;;4996079;28;20505;-61
2021/04/25 07:11:53;;;;;;;7.90;4.87;;;;;;;;;;4995713;28;20505;-62
2021/04/25 07:14:20;;;;;;;11.93;4.60;;;;;;;;;;4993557;28;20454;-59
2021/04/25 07:16:46;;;;;;;14.23;4.87;;;;;;;;;;4994912;28;20539;-61
2021/04/25 07:19:13;;;;;;;10.57;4.47;;;;;;;;;;4995242;28;20458;-62
2021/04/25 07:21:40;;;;;;;10.63;4.97;;;;;;;;;;4995219;28;20505;-62
2021/04/25 07:24:07;;;;;;;13.23;7.03;;;;;;;;;;4995360;28;20451;-61
2021/04/25 07:26:33;;;;;;;7.03;4.43;;;;;;;;;;4995267;28;20447;-61
2021/04/25 07:29:00;;;;;;;11.13;4.67;;;;;;;;;;4995180;28;20805;-61
2021/04/25 07:31:26;;;;;;;9.47;4.63;;;;;;;;;;4994651;28;20470;-60
2021/04/25 07:33:53;;;;;;;7.63;3.80;;;;;;;;;;4995132;28;20455;-60
2021/04/25 07:36:19;;;;;;;8.43;4.53;;;;;;;;;;4994989;28;20479;-60
2021/04/25 07:38:47;;;;;;;8.47;4.47;;;;;;;;;;4995077;28;20509;-60
2021/04/25 07:41:14;;;;;;;9.10;4.47;;;;;;;;;;4991439;28;20830;-62
2021/04/25 07:43:40;;;;;;;6.93;4.13;;;;;;;;;;4994627;28;21006;-61
2021/04/25 07:46:07;;;;;;;10.07;4.10;;;;;;;;;;4994416;28;20451;-61
2021/04/25 07:48:34;;;;;;;6.80;3.80;;;;;;;;;;4994710;28;20885;-61
2021/04/25 07:51:00;;;;;;;6.40;4.00;;;;;;;;;;4994033;28;20479;-61
2021/04/25 07:53:28;;;;;;;8.53;4.33;;;;;;;;;;4994758;28;20455;-61
2021/04/25 07:55:55;;;;;;;10.13;4.57;;;;;;;;;;4994378;28;21017;-62
2021/04/25 07:58:22;;;;;;;8.87;3.83;;;;;;;;;;4994561;28;20450;-61
2021/04/25 08:00:48;;;;;;;10.90;4.30;;;;;;;;;;4994094;28;20488;-61
2021/04/25 08:03:15;;;;;;;8.40;4.27;;;;;;;;;;4993698;28;20870;-61
2021/04/25 08:05:41;;;;;;;8.40;3.97;;;;;;;;;;4994030;28;20478;-62
2021/04/25 08:08:08;;;;;;;8.47;4.07;;;;;;;;;;4994166;28;20943;-60
2021/04/25 08:10:34;;;;;;;7.70;4.87;;;;;;;;;;4993504;28;20979;-61
2021/04/25 08:13:02;;;;;;;9.90;4.40;;;;;;;;;;4996103;28;20478;-69
2021/04/25 08:15:28;;;;;;;8.53;4.20;;;;;;;;;;4997477;28;20454;-70
2021/04/25 08:17:56;;;;;;;7.93;3.60;;;;;;;;;;4997026;28;20455;-61
2021/04/25 08:20:23;;;;;;;9.03;4.40;;;;;;;;;;4992155;28;20496;-61
2021/04/25 08:22:50;;;;;;;8.60;4.40;;;;;;;;;;5035474;23;20501;-61
2021/04/25 08:25:17;;;;;;;6.03;3.97;;;;;;;;;;4994260;28;20455;-60
2021/04/25 08:27:43;;;;;;;10.00;4.50;;;;;;;;;;4992841;28;20494;-60
2021/04/25 08:30:11;;;;;;;5.03;3.80;;;;;;;;;;4992325;28;20466;-60
2021/04/25 08:32:38;;;;;;;9.97;4.93;;;;;;;;;;5000663;28;20470;-60
2021/04/25 08:35:05;;;;;;;7.77;4.13;;;;;;;;;;5012028;28;20450;-61
2021/04/25 08:37:32;;;;;;;7.00;4.07;;;;;;;;;;5013072;28;20486;-61
2021/04/25 08:39:59;;;;;;;9.63;3.83;;;;;;;;;;5013038;28;20450;-61
2021/04/25 08:42:26;;;;;;;8.23;4.20;;;;;;;;;;5012762;28;20481;-62
2021/04/25 08:44:54;;;;;;;10.17;4.03;;;;;;;;;;5013324;28;20458;-60
2021/04/25 08:47:23;;;;;;;6.10;4.23;;;;;;;;;;5013179;28;20454;-65
2021/04/25 08:49:52;;;;;;;9.07;3.70;;;;;;;;;;5012605;28;20446;-66
2021/04/25 08:52:21;;;;;;;8.23;4.10;;;;;;;;;;5013478;28;21005;-64
2021/04/25 08:54:47;;;;;;;9.07;4.60;;;;;;;;;;5012904;28;20477;-63
2021/04/25 08:57:14;;;;;;;10.70;3.33;;;;;;;;;;5013108;28;20555;-62
2021/04/25 08:59:40;;;;;;;7.57;3.90;;;;;;;;;;5012762;28;20446;-63
2021/04/25 09:02:07;;;;;;;7.87;3.80;;;;;;;;;;5012387;28;20470;-66
2021/04/25 09:04:35;;;;;;;7.43;4.73;;;;;;;;;;5012279;28;20457;-65
2021/04/25 09:07:03;;;;;;;10.77;4.23;;;;;;;;;;5012703;28;20450;-64
2021/04/25 09:09:42;;;;;;;8.33;4.23;;;;;;;;;;5013233;28;20800;-65
2021/04/25 09:12:09;;;;;;;8.97;4.10;;;;;;;;;;5012353;28;20478;-67
2021/04/25 09:14:39;;;;;;;6.07;3.63;;;;;;;;;;5011820;28;20456;-64
2021/04/25 09:17:06;;;;;;;8.73;4.37;;;;;;;;;;5012862;28;20488;-63
2021/04/25 09:19:49;;;;;;;11.17;3.90;;;;;;;;;;5012228;28;20538;-67
2021/04/25 09:22:17;;;;;;;8.13;3.50;;;;;;;;;;5012539;28;20478;-65
2021/04/25 09:24:44;;;;;;;6.70;3.47;;;;;;;;;;5012175;28;20216;-65
2021/04/25 09:27:10;;;;;;;9.07;3.57;;;;;;;;;;5012629;28;20232;-64
2021/04/25 09:29:49;;;;;;;8.80;3.23;;;;;;;;;;5012440;28;20215;-66
2021/04/25 09:32:17;;;;;;;4.87;3.33;;;;;;;;;;5012058;28;20223;-66
2021/04/25 09:34:43;;;;;;;5.43;3.70;;;;;;;;;;5012703;28;20264;-65
2021/04/25 09:37:15;;;;;;;5.03;3.10;;;;;;;;;;5012265;28;20232;-66
2021/04/25 09:39:56;;;;;;;5.97;3.03;;;;;;;;;;5012227;28;20599;-64
2021/04/25 09:42:23;;;;;;;6.17;3.63;;;;;;;;;;5011882;28;20239;-55
2021/04/25 09:44:50;;;;;;;8.97;3.73;;;;;;;;;;5011880;28;20841;-58
2021/04/25 09:47:17;;;;;;;10.00;3.90;;;;;;;;;;5012474;28;20442;-59
2021/04/25 09:49:45;;;;;;;7.20;3.33;;;;;;;;;;5012030;28;20621;-57
2021/04/25 09:52:13;;;;;;;6.67;3.83;;;;;;;;;;5012288;28;20484;-56
2021/04/25 09:54:40;;;;;;;8.93;3.97;;;;;;;;;;5011919;28;20442;-60
2021/04/25 09:57:07;;;;;;;5.93;3.60;;;;;;;;;;5011881;28;20234;-59
2021/04/25 09:59:51;;;;;;;10.67;4.10;;;;;;;;;;5012253;28;20457;-57
2021/04/25 10:02:17;;;;;;;6.17;3.63;;;;;;;;;;5011883;28;20285;-60
2021/04/25 10:04:44;;;;;;;8.17;3.63;;;;;;;;;;5012398;28;20289;-59
2021/04/25 10:07:12;;;;;;;7.87;4.43;;;;;;;;;;5012071;28;20205;-58
2021/04/25 10:09:39;;;;;;;9.13;3.80;;;;;;;;;;5012205;28;20212;-58
2021/04/25 10:12:06;;;;;;;7.23;3.73;;;;;;;;;;5011555;28;20931;-65
2021/04/25 10:14:34;;;;;;;6.70;3.40;;;;;;;;;;5011831;28;20262;-66
2021/04/25 10:17:01;;;;;;;7.37;4.23;;;;;;;;;;5011810;28;20235;-66
2021/04/25 10:19:28;;;;;;;11.10;4.03;;;;;;;;;;5011687;28;20216;-61
2021/04/25 10:21:55;;;;;;;5.27;3.70;;;;;;;;;;5011386;28;20231;-61
2021/04/25 10:24:22;;;;;;;5.63;3.70;;;;;;;;;;5011708;28;20600;-59
2021/04/25 10:26:53;;;;;;;7.13;3.57;;;;;;;;;;5015637;28;20209;-61
2021/04/25 10:29:23;;;;;;;7.27;3.30;;;;;;;;;;5001100;28;20249;-60
2021/04/25 10:31:55;;;;;;;5.57;3.57;;;;;;;;;;4995613;28;20238;-64
2021/04/25 10:34:22;;;;;;;7.83;3.17;;;;;;;;;;4996012;28;20261;-66
2021/04/25 10:36:59;;;;;;;4.90;3.40;;;;;;;;;;4995920;28;20230;-65
2021/04/25 10:39:40;;;;;;;9.40;3.67;;;;;;;;;;4996155;28;20208;-64
2021/04/25 10:42:25;;;;;;;4.73;2.77;;;;;;;;;;4995663;28;20240;-66
2021/04/25 10:45:16;;;;;;;5.77;3.93;;;;;;;;;;4995859;28;20215;-63
2021/04/25 10:47:42;;;;;;;7.27;3.83;;;;;;;;;;4996078;28;20203;-63
2021/04/25 10:50:24;;;;;;;7.37;3.90;;;;;;;;;;4995272;28;20214;-62
2021/04/25 10:52:51;;;;;;;8.00;3.63;;;;;;;;;;4995644;28;20235;-63
2021/04/25 10:55:32;;;;;;;7.47;3.60;;;;;;;;;;4995798;28;20301;-62
2021/04/25 10:58:16;;;;;;;6.90;3.50;;;;;;;;;;4996604;28;20213;-62
2021/04/25 11:00:45;;;;;;;7.03;4.00;;;;;;;;;;4995380;28;20637;-62
2021/04/25 11:03:12;;;;;;;8.17;3.10;;;;;;;;;;4995599;28;20211;-62
2021/04/25 11:05:43;;;;;;;9.30;3.60;;;;;;;;;;4995570;28;20214;-61
2021/04/25 11:08:29;;;;;;;7.60;3.83;;;;;;;;;;4995112;28;20597;-65
2021/04/25 11:10:57;;;;;;;4.70;2.87;;;;;;;;;;4994726;28;20248;-61
2021/04/25 11:13:44;;;;;;;7.43;3.20;;;;;;;;;;4995548;28;20214;-62
2021/04/25 11:16:25;;;;;;;9.60;3.97;;;;;;;;;;4995414;28;20306;-63
2021/04/25 11:18:53;;;;;;;7.63;3.53;;;;;;;;;;4995017;28;20261;-64
2021/04/25 11:21:50;;;;;;;4.67;3.37;;;;;;;;;;4994631;28;20432;-60
2021/04/25 11:24:43;;;;;;;6.73;2.93;;;;;;;;;;4995129;28;20266;-63
2021/04/25 11:27:11;;;;;;;8.90;3.40;;;;;;;;;;4995177;28;20212;-62
2021/04/25 11:29:56;;;;;;;4.83;2.87;;;;;;;;;;4994961;28;20238;-62
2021/04/25 11:32:24;;;;;;;5.70;2.80;;;;;;;;;;4994697;28;20237;-62
2021/04/25 11:34:58;;;;;;;7.63;3.30;;;;;;;;;;4994878;28;20208;-60
2021/04/25 11:37:24;;;;;;;6.53;3.20;;;;;;;;;;4993563;28;20234;-61
2021/04/25 11:39:52;;;;;;;7.10;3.53;;;;;;;;;;4994732;28;20239;-63
2021/04/25 11:42:24;;;;;;;8.47;3.57;;;;;;;;;;4994524;28;20310;-56
2021/04/25 11:44:51;;;;;;;6.93;2.93;;;;;;;;;;4994635;28;20215;-60
2021/04/25 11:47:18;;;;;;;6.50;3.27;;;;;;;;;;4994672;28;20200;-58
2021/04/25 11:49:46;;;;;;;7.60;3.30;;;;;;;;;;4994804;28;20208;-61
2021/04/25 11:52:14;;;;;;;9.47;3.37;;;;;;;;;;4994431;28;20227;-58
2021/04/25 11:54:41;;;;;;;6.40;3.63;;;;;;;;;;4994728;28;20207;-62
2021/04/25 11:57:08;;;;;;;5.23;3.13;;;;;;;;;;4994469;28;20223;-59
2021/04/25 11:59:34;;;;;;;8.70;3.17;;;;;;;;;;4994463;28;20212;-59
2021/04/25 12:02:07;;;;;;;7.53;3.33;;;;;;;;;;4994653;28;20231;-57
2021/04/25 12:04:44;;;;;;;9.97;3.53;;;;;;;;;;4994505;28;20327;-59
2021/04/25 12:07:11;;;;;;;6.83;3.57;;;;;;;;;;4994385;28;20234;-58
2021/04/25 12:09:38;;;;;;;7.60;3.20;;;;;;;;;;4994134;28;20705;-61
2021/04/25 12:12:05;;;;;;;9.13;3.30;;;;;;;;;;4994011;28;20300;-59
2021/04/25 12:14:33;;;;;;;10.50;3.87;;;;;;;;;;4994055;28;20215;-59
2021/04/25 12:17:12;;;;;;;4.47;2.80;;;;;;;;;;4994069;28;20707;-61
2021/04/25 12:19:39;;;;;;;8.73;3.20;;;;;;;;;;4993847;28;20208;-59
2021/04/25 12:22:06;;;;;;;8.00;3.27;;;;;;;;;;4993935;28;20231;-58
2021/04/25 12:24:33;;;;;;;7.13;3.80;;;;;;;;;;4993909;28;20227;-59
2021/04/25 12:27:00;;;;;;;7.07;3.20;;;;;;;;;;4994049;28;20207;-61
2021/04/25 12:29:33;;;;;;;6.87;3.07;;;;;;;;;;4993703;28;20214;-62
2021/04/25 12:31:59;;;;;;;5.03;2.60;;;;;;;;;;4993453;28;20584;-62
2021/04/25 12:34:28;;;;;;;8.27;3.37;;;;;;;;;;4993636;28;20582;-58
2021/04/25 12:36:55;;;;;;;7.20;3.50;;;;;;;;;;4994092;28;20231;-62
2021/04/25 12:39:22;;;;;;;7.53;3.63;;;;;;;;;;4993612;28;20242;-61
2021/04/25 12:41:50;;;;;;;7.63;3.30;;;;;;;;;;4993473;28;20232;-60
2021/04/25 12:44:18;;;;;;;7.70;3.30;;;;;;;;;;4993362;28;20619;-58
2021/04/25 12:46:54;;;;;;;7.33;3.30;;;;;;;;;;4993814;28;20635;-59
2021/04/25 12:49:21;;;;;;;6.93;3.97;;;;;;;;;;4993237;28;20703;-57
2021/04/25 12:51:48;;;;;;;4.90;3.20;;;;;;;;;;4993155;28;20231;-64
2021/04/25 12:54:16;;;;;;;6.07;2.73;;;;;;;;;;4993263;28;20248;-62
2021/04/25 12:56:46;;;;;;;7.40;3.57;;;;;;;;;;4993722;28;20238;-62
2021/04/25 12:59:15;;;;;;;5.67;3.57;;;;;;;;;;4993743;28;20214;-63
2021/04/25 13:01:46;;;;;;;6.40;3.20;;;;;;;;;;4992977;28;20223;-62
2021/04/25 13:04:27;;;;;;;9.17;3.57;;;;;;;;;;4993317;28;20204;-62
2021/04/25 13:07:12;;;;;;;7.70;3.87;;;;;;;;;;4992914;28;20203;-61
2021/04/25 13:09:38;;;;;;;6.20;3.37;;;;;;;;;;4993277;28;20208;-65
2021/04/25 13:12:16;;;;;;;10.93;4.10;;;;;;;;;;4992198;28;20254;-65
2021/04/25 13:14:55;;;;;;;9.20;3.50;;;;;;;;;;4977679;28;20223;-64
2021/04/25 13:17:24;;;;;;;7.47;4.13;;;;;;;;;;5012441;28;20261;-64
2021/04/25 13:19:51;;;;;;;9.13;3.90;;;;;;;;;;5012252;28;20214;-64
2021/04/25 13:22:17;;;;;;;7.50;3.93;;;;;;;;;;5012538;28;20234;-67
2021/04/25 13:24:44;;;;;;;4.30;3.10;;;;;;;;;;5012388;28;20443;-68
2021/04/25 13:27:13;;;;;;;9.13;3.43;;;;;;;;;;5012669;28;20253;-68
2021/04/25 13:29:39;;;;;;;7.63;3.63;;;;;;;;;;5011790;28;20775;-72
2021/04/25 13:32:06;;;;;;;10.20;4.00;;;;;;;;;;5011958;28;20231;-69
2021/04/25 13:34:33;;;;;;;9.43;3.83;;;;;;;;;;5012136;28;20206;-69
2021/04/25 13:37:00;;;;;;;6.63;3.63;;;;;;;;;;5012152;28;20231;-70
2021/04/25 13:39:26;;;;;;;7.03;3.80;;;;;;;;;;5011293;28;20214;-71
2021/04/25 13:41:53;;;;;;;8.10;4.20;;;;;;;;;;5011811;28;20229;-68
2021/04/25 13:44:21;;;;;;;11.33;4.10;;;;;;;;;;5012302;28;20207;-70
2021/04/25 13:46:47;;;;;;;6.27;3.67;;;;;;;;;;5012185;28;20203;-68
2021/04/25 13:49:15;;;;;;;7.37;3.87;;;;;;;;;;4996883;28;20215;-67
2021/04/25 13:51:41;;;;;;;6.13;3.50;;;;;;;;;;4991650;28;20243;-65
2021/04/25 13:54:08;;;;;;;8.20;3.80;;;;;;;;;;4992434;28;20207;-63
2021/04/25 13:56:35;;;;;;;7.13;4.30;;;;;;;;;;4992124;28;20231;-63
2021/04/25 13:59:02;;;;;;;9.80;4.53;;;;;;;;;;4992206;28;20681;-64
2021/04/25 14:01:28;;;;;;;6.67;3.60;;;;;;;;;;4992317;28;20631;-62
2021/04/25 14:03:55;;;;;;;8.13;3.73;;;;;;;;;;4992459;28;20204;-62
2021/04/25 14:06:22;;;;;;;8.53;4.57;;;;;;;;;;4992146;28;20203;-63
2021/04/25 14:08:51;;;;;;;11.53;4.17;;;;;;;;;;4992194;28;20203;-65
2021/04/25 14:11:18;;;;;;;6.73;3.90;;;;;;;;;;4991492;28;20254;-66
2021/04/25 14:13:44;;;;;;;9.13;4.27;;;;;;;;;;4992962;28;20572;-63
2021/04/25 14:16:11;;;;;;;10.17;4.73;;;;;;;;;;4992233;28;20227;-62
2021/04/25 14:18:37;;;;;;;12.40;4.13;;;;;;;;;;4992476;28;20266;-65
2021/04/25 14:21:04;;;;;;;10.30;4.40;;;;;;;;;;4991674;28;20236;-62
2021/04/25 14:23:32;;;;;;;7.33;3.87;;;;;;;;;;4991886;28;20223;-63
2021/04/25 14:25:59;;;;;;;8.47;3.80;;;;;;;;;;4991861;28;20216;-63
2021/04/25 14:28:26;;;;;;;6.50;4.00;;;;;;;;;;4992064;28;20283;-63
2021/04/25 14:30:53;;;;;;;10.83;3.60;;;;;;;;;;4991951;28;20258;-64
2021/04/25 14:33:19;;;;;;;6.40;3.93;;;;;;;;;;4992160;28;20207;-64
2021/04/25 14:35:46;;;;;;;12.77;4.37;;;;;;;;;;4992314;28;20768;-63
2021/04/25 14:38:13;;;;;;;10.70;4.00;;;;;;;;;;4992165;28;20271;-64
2021/04/25 14:40:40;;;;;;;13.33;5.50;;;;;;;;;;4991209;28;20604;-65